createdAt,value
2022-11-19T00:00:18.007Z,2.07
2022-11-19T00:01:17.968Z,2.07
2022-11-19T00:02:18.022Z,2.07
2022-11-19T00:03:17.946Z,2.10
2022-11-19T00:04:17.942Z,2.08
2022-11-19T00:05:17.933Z,2.08
2022-11-19T00:06:17.914Z,2.07
2022-11-19T00:07:17.944Z,2.08
2022-11-19T00:08:17.896Z,2.02
2022-11-19T00:09:18.314Z,1.99
2022-11-19T00:10:17.874Z,1.91
2022-11-19T00:11:17.843Z,1.85
2022-11-19T00:12:17.841Z,1.81
2022-11-19T00:13:17.838Z,1.76
2022-11-19T00:14:17.851Z,1.76
2022-11-19T00:15:17.813Z,1.78
2022-11-19T00:16:17.822Z,1.80
2022-11-19T00:17:17.835Z,1.84
2022-11-19T00:18:17.775Z,1.84
2022-11-19T00:19:18.199Z,1.84
2022-11-19T00:20:17.753Z,1.78
2022-11-19T00:21:17.754Z,1.78
2022-11-19T00:22:17.771Z,1.77
2022-11-19T00:23:17.711Z,1.73
2022-11-19T00:24:17.711Z,1.66
2022-11-19T00:25:17.694Z,1.63
2022-11-19T00:26:17.685Z,1.66
2022-11-19T00:27:17.670Z,1.63
2022-11-19T00:28:17.683Z,1.67
2022-11-19T00:29:18.271Z,1.67
2022-11-19T00:30:40.673Z,1.67
2022-11-19T00:31:18.630Z,1.68
2022-11-19T00:32:17.631Z,1.68
2022-11-19T00:33:17.767Z,1.68
2022-11-19T00:34:17.609Z,1.68
2022-11-19T00:35:17.594Z,1.70
2022-11-19T00:36:17.576Z,1.67
2022-11-19T00:37:17.550Z,1.63
2022-11-19T00:38:17.595Z,1.63
2022-11-19T00:39:17.969Z,1.62
2022-11-19T00:40:17.540Z,1.66
2022-11-19T00:41:17.507Z,1.67
2022-11-19T00:42:17.525Z,1.67
2022-11-19T00:43:17.515Z,1.70
2022-11-19T00:44:17.507Z,1.67
2022-11-19T00:45:17.472Z,1.67
2022-11-19T00:46:17.484Z,1.63
2022-11-19T00:47:17.453Z,1.62
2022-11-19T00:48:17.452Z,1.60
2022-11-19T00:49:17.949Z,1.60
2022-11-19T00:50:17.440Z,1.60
2022-11-19T00:51:17.411Z,1.56
2022-11-19T00:52:17.403Z,1.56
2022-11-19T00:53:17.411Z,1.58
2022-11-19T00:54:17.395Z,1.56
2022-11-19T00:55:17.360Z,1.53
2022-11-19T00:56:17.371Z,1.55
2022-11-19T00:57:17.345Z,1.50
2022-11-19T00:58:17.380Z,1.50
2022-11-19T00:59:18.014Z,1.52
2022-11-19T01:00:17.332Z,1.55
2022-11-19T01:01:17.368Z,1.59
2022-11-19T01:02:17.292Z,1.56
2022-11-19T01:03:17.261Z,1.58
2022-11-19T01:04:17.284Z,1.56
2022-11-19T01:05:17.256Z,1.55
2022-11-19T01:06:19.324Z,1.53
2022-11-19T01:07:17.248Z,1.49
2022-11-19T01:08:17.239Z,1.50
2022-11-19T01:09:17.422Z,1.49
2022-11-19T01:10:17.209Z,1.49
2022-11-19T01:11:17.195Z,1.50
2022-11-19T01:12:17.187Z,1.49
2022-11-19T01:13:17.164Z,1.48
2022-11-19T01:14:17.169Z,1.45
2022-11-19T01:15:17.132Z,1.48
2022-11-19T01:16:17.260Z,1.44
2022-11-19T01:17:17.112Z,1.49
2022-11-19T01:18:17.122Z,1.50
2022-11-19T01:19:17.584Z,1.45
2022-11-19T01:20:17.177Z,1.45
2022-11-19T01:21:17.073Z,1.40
2022-11-19T01:22:17.082Z,1.38
2022-11-19T01:23:17.072Z,1.38
2022-11-19T01:24:17.040Z,1.37
2022-11-19T01:25:17.032Z,1.35
2022-11-19T01:26:17.026Z,1.35
2022-11-19T01:27:17.012Z,1.37
2022-11-19T01:28:17.033Z,1.37
2022-11-19T01:29:17.254Z,1.34
2022-11-19T01:30:17.020Z,1.34
2022-11-19T01:31:16.969Z,1.34
2022-11-19T01:32:16.963Z,1.34
2022-11-19T01:33:16.933Z,1.35
2022-11-19T01:34:16.961Z,1.37
2022-11-19T01:35:16.965Z,1.37
2022-11-19T01:36:16.920Z,1.35
2022-11-19T01:37:16.905Z,1.32
2022-11-19T01:38:16.884Z,1.28
2022-11-19T01:39:17.171Z,1.26
2022-11-19T01:40:16.893Z,1.28
2022-11-19T01:41:16.851Z,1.30
2022-11-19T01:42:16.844Z,1.34
2022-11-19T01:43:16.821Z,1.32
2022-11-19T01:44:16.821Z,1.28
2022-11-19T01:45:16.809Z,1.26
2022-11-19T01:46:16.801Z,1.28
2022-11-19T01:47:16.781Z,1.26
2022-11-19T01:48:17.221Z,1.30
2022-11-19T01:49:17.371Z,1.28
2022-11-19T01:50:16.769Z,1.24
2022-11-19T01:51:16.725Z,1.24
2022-11-19T01:52:16.757Z,1.24
2022-11-19T01:53:16.710Z,1.28
2022-11-19T01:54:16.709Z,1.24
2022-11-19T01:55:16.722Z,1.26
2022-11-19T01:56:16.696Z,1.26
2022-11-19T01:57:16.692Z,1.28
2022-11-19T01:58:16.669Z,1.24
2022-11-19T01:59:16.896Z,1.24
2022-11-19T02:00:16.649Z,1.23
2022-11-19T02:01:16.670Z,1.24
2022-11-19T02:02:16.629Z,1.24
2022-11-19T02:03:16.602Z,1.22
2022-11-19T02:04:16.602Z,1.22
2022-11-19T02:05:16.792Z,1.20
2022-11-19T02:06:16.582Z,1.20
2022-11-19T02:07:16.632Z,1.20
2022-11-19T02:08:16.571Z,1.19
2022-11-19T02:09:16.761Z,1.17
2022-11-19T02:10:16.537Z,1.13
2022-11-19T02:11:16.562Z,1.16
2022-11-19T02:12:16.547Z,1.16
2022-11-19T02:13:16.499Z,1.17
2022-11-19T02:14:16.498Z,1.19
2022-11-19T02:15:16.487Z,1.20
2022-11-19T02:16:16.489Z,1.20
2022-11-19T02:17:16.475Z,1.23
2022-11-19T02:18:16.462Z,1.19
2022-11-19T02:19:16.857Z,1.19
2022-11-19T02:20:16.426Z,1.20
2022-11-19T02:21:16.451Z,1.19
2022-11-19T02:22:16.398Z,1.20
2022-11-19T02:23:16.367Z,1.20
2022-11-19T02:24:16.386Z,1.17
2022-11-19T02:25:16.363Z,1.16
2022-11-19T02:26:16.374Z,1.13
2022-11-19T02:27:16.340Z,1.13
2022-11-19T02:28:16.394Z,1.17
2022-11-19T02:29:16.708Z,1.20
2022-11-19T02:30:16.306Z,1.20
2022-11-19T02:31:16.307Z,1.19
2022-11-19T02:32:16.298Z,1.17
2022-11-19T02:33:16.279Z,1.16
2022-11-19T02:34:16.286Z,1.12
2022-11-19T02:35:16.240Z,1.10
2022-11-19T02:36:16.274Z,1.08
2022-11-19T02:37:16.246Z,1.10
2022-11-19T02:38:16.239Z,1.12
2022-11-19T02:39:16.472Z,1.13
2022-11-19T02:40:16.262Z,1.14
2022-11-19T02:41:16.187Z,1.17
2022-11-19T02:42:16.198Z,1.19
2022-11-19T02:43:16.179Z,1.17
2022-11-19T02:44:16.167Z,1.17
2022-11-19T02:45:16.149Z,1.14
2022-11-19T02:46:16.148Z,1.14
2022-11-19T02:47:16.126Z,1.10
2022-11-19T02:48:16.130Z,1.13
2022-11-19T02:49:16.530Z,1.16
2022-11-19T02:50:16.108Z,1.14
2022-11-19T02:51:16.077Z,1.16
2022-11-19T02:52:16.067Z,1.16
2022-11-19T02:53:16.054Z,1.17
2022-11-19T02:54:16.053Z,1.19
2022-11-19T02:55:16.067Z,1.14
2022-11-19T02:56:16.022Z,1.13
2022-11-19T02:57:16.019Z,1.06
2022-11-19T02:58:16.015Z,1.08
2022-11-19T02:59:16.048Z,1.08
2022-11-19T03:00:15.994Z,1.08
2022-11-19T03:01:16.022Z,1.10
2022-11-19T03:02:15.994Z,1.14
2022-11-19T03:03:15.948Z,1.14
2022-11-19T03:04:15.975Z,1.14
2022-11-19T03:05:15.927Z,1.17
2022-11-19T03:06:15.959Z,1.20
2022-11-19T03:07:15.944Z,1.24
2022-11-19T03:08:16.015Z,1.28
2022-11-19T03:09:16.108Z,1.26
2022-11-19T03:10:15.923Z,1.26
2022-11-19T03:11:15.862Z,1.28
2022-11-19T03:12:15.854Z,1.26
2022-11-19T03:13:15.854Z,1.22
2022-11-19T03:14:15.914Z,1.20
2022-11-19T03:15:15.815Z,1.19
2022-11-19T03:16:15.802Z,1.19
2022-11-19T03:17:15.814Z,1.17
2022-11-19T03:18:15.790Z,1.22
2022-11-19T03:19:15.777Z,1.20
2022-11-19T03:20:15.787Z,1.17
2022-11-19T03:21:15.743Z,1.17
2022-11-19T03:22:15.748Z,1.19
2022-11-19T03:23:15.727Z,1.22
2022-11-19T03:24:15.723Z,1.23
2022-11-19T03:25:15.715Z,1.22
2022-11-19T03:26:15.758Z,1.22
2022-11-19T03:27:15.684Z,1.22
2022-11-19T03:28:15.759Z,1.20
2022-11-19T03:29:15.662Z,1.20
2022-11-19T03:30:15.668Z,1.16
2022-11-19T03:31:15.655Z,1.12
2022-11-19T03:32:15.651Z,1.12
2022-11-19T03:33:15.623Z,1.12
2022-11-19T03:34:15.615Z,1.13
2022-11-19T03:35:15.598Z,1.10
2022-11-19T03:36:15.616Z,1.08
2022-11-19T03:37:15.564Z,1.08
2022-11-19T03:38:15.579Z,1.10
2022-11-19T03:39:15.563Z,1.12
2022-11-19T03:40:15.532Z,1.13
2022-11-19T03:41:15.563Z,1.12
2022-11-19T03:42:15.516Z,1.12
2022-11-19T03:43:15.506Z,1.08
2022-11-19T03:44:15.496Z,1.08
2022-11-19T03:45:15.511Z,1.13
2022-11-19T03:46:15.492Z,1.14
2022-11-19T03:47:15.460Z,1.14
2022-11-19T03:48:15.463Z,1.14
2022-11-19T03:49:15.436Z,1.16
2022-11-19T03:50:15.445Z,1.14
2022-11-19T03:51:15.471Z,1.12
2022-11-19T03:52:15.413Z,1.06
2022-11-19T03:53:15.384Z,1.05
2022-11-19T03:54:15.431Z,1.04
2022-11-19T03:55:15.382Z,1.02
2022-11-19T03:56:15.393Z,1.02
2022-11-19T03:57:15.451Z,1.04
2022-11-19T03:58:15.347Z,1.02
2022-11-19T03:59:15.325Z,1.01
2022-11-19T04:00:15.340Z,0.99
2022-11-19T04:01:15.466Z,0.99
2022-11-19T04:02:15.301Z,1.01
2022-11-19T04:03:15.286Z,1.01
2022-11-19T04:04:15.285Z,1.02
2022-11-19T04:05:15.260Z,1.02
2022-11-19T04:06:15.268Z,0.99
2022-11-19T04:07:15.322Z,0.98
2022-11-19T04:08:15.244Z,0.99
2022-11-19T04:09:15.212Z,0.99
2022-11-19T04:10:15.212Z,0.96
2022-11-19T04:12:22.740Z,0.96
2022-11-19T04:13:22.720Z,0.96
2022-11-19T04:14:22.708Z,0.98
2022-11-19T04:15:22.690Z,0.99
2022-11-19T04:16:22.702Z,1.01
2022-11-19T04:17:22.684Z,0.99
2022-11-19T04:18:22.653Z,1.01
2022-11-19T04:19:22.669Z,0.96
2022-11-19T04:20:22.641Z,0.91
2022-11-19T04:21:22.665Z,0.86
2022-11-19T04:22:22.609Z,0.83
2022-11-19T04:23:22.708Z,0.83
2022-11-19T04:24:22.620Z,0.81
2022-11-19T04:25:22.597Z,0.83
2022-11-19T04:26:22.864Z,0.80
2022-11-19T04:27:22.588Z,0.81
2022-11-19T04:28:22.552Z,0.80
2022-11-19T04:29:22.556Z,0.78
2022-11-19T04:30:22.517Z,0.76
2022-11-19T04:31:22.545Z,0.73
2022-11-19T04:32:22.501Z,0.69
2022-11-19T04:33:22.522Z,0.66
2022-11-19T04:34:22.500Z,0.63
2022-11-19T04:35:22.492Z,0.63
2022-11-19T04:36:22.496Z,0.60
2022-11-19T04:37:22.548Z,0.59
2022-11-19T04:38:22.516Z,0.58
2022-11-19T04:39:23.050Z,0.58
2022-11-19T04:40:22.620Z,0.56
2022-11-19T04:41:22.672Z,0.56
2022-11-19T04:42:22.596Z,0.56
2022-11-19T04:43:22.416Z,0.56
2022-11-19T04:44:22.397Z,0.50
2022-11-19T04:45:22.372Z,0.46
2022-11-19T04:46:22.348Z,0.43
2022-11-19T04:47:22.356Z,0.46
2022-11-19T04:48:22.324Z,0.41
2022-11-19T04:49:22.534Z,0.36
2022-11-19T04:50:22.536Z,0.34
2022-11-19T04:51:22.296Z,0.34
2022-11-19T04:52:22.277Z,0.31
2022-11-19T04:53:22.297Z,0.28
2022-11-19T04:54:22.313Z,0.28
2022-11-19T04:55:22.265Z,0.22
2022-11-19T04:56:22.465Z,0.16
2022-11-19T04:57:22.236Z,0.10
2022-11-19T04:58:22.225Z,0.08
2022-11-19T04:59:22.500Z,0.12
2022-11-19T05:00:22.196Z,0.11
2022-11-19T05:01:22.349Z,0.10
2022-11-19T05:02:22.204Z,0.11
2022-11-19T05:03:22.177Z,0.15
2022-11-19T05:04:22.156Z,0.15
2022-11-19T05:05:22.147Z,0.12
2022-11-19T05:06:22.152Z,0.12
2022-11-19T05:07:22.210Z,0.10
2022-11-19T05:08:22.104Z,0.07
2022-11-19T05:09:22.451Z,0.07
2022-11-19T05:10:22.096Z,0.08
2022-11-19T05:11:22.088Z,0.07
2022-11-19T05:12:22.094Z,0.07
2022-11-19T05:13:22.073Z,0.07
2022-11-19T05:14:23.756Z,0.08
2022-11-19T05:15:23.057Z,0.07
2022-11-19T05:16:22.034Z,0.04
2022-11-19T05:17:22.032Z,0.04
2022-11-19T05:18:22.032Z,0.03
2022-11-19T05:19:22.213Z,0.01
2022-11-19T05:20:21.997Z,0.00
2022-11-19T05:21:21.977Z,-0.02
2022-11-19T05:22:21.953Z,-0.06
2022-11-19T05:23:21.967Z,-0.02
2022-11-19T05:24:21.933Z,-0.02
2022-11-19T05:25:21.955Z,-0.02
2022-11-19T05:26:21.933Z,-0.06
2022-11-19T05:27:21.937Z,-0.07
2022-11-19T05:28:32.690Z,-0.06
2022-11-19T05:29:22.887Z,-0.07
2022-11-19T05:30:21.866Z,-0.10
2022-11-19T05:31:21.901Z,-0.10
2022-11-19T05:32:21.842Z,-0.11
2022-11-19T05:33:21.853Z,-0.10
2022-11-19T05:34:21.839Z,-0.10
2022-11-19T05:35:22.466Z,-0.11
2022-11-19T05:36:21.810Z,-0.14
2022-11-19T05:37:21.842Z,-0.14
2022-11-19T05:38:21.805Z,-0.13
2022-11-19T05:39:22.505Z,-0.11
2022-11-19T05:40:21.755Z,-0.14
2022-11-19T05:41:21.785Z,-0.17
2022-11-19T05:42:21.727Z,-0.20
2022-11-19T05:43:21.754Z,-0.20
2022-11-19T05:44:21.714Z,-0.21
2022-11-19T05:45:21.722Z,-0.26
2022-11-19T05:46:21.694Z,-0.26
2022-11-19T05:47:21.702Z,-0.28
2022-11-19T05:48:21.691Z,-0.25
2022-11-19T05:49:21.942Z,-0.26
2022-11-19T05:50:21.665Z,-0.26
2022-11-19T05:51:21.651Z,-0.28
2022-11-19T05:52:21.633Z,-0.29
2022-11-19T05:53:21.678Z,-0.31
2022-11-19T05:54:21.699Z,-0.32
2022-11-19T05:55:21.625Z,-0.32
2022-11-19T05:56:21.582Z,-0.34
2022-11-19T05:57:21.607Z,-0.34
2022-11-19T05:58:21.559Z,-0.32
2022-11-19T05:59:22.195Z,-0.35
2022-11-19T06:00:21.535Z,-0.38
2022-11-19T06:01:21.551Z,-0.36
2022-11-19T06:02:21.618Z,-0.36
2022-11-19T06:03:21.530Z,-0.46
2022-11-19T06:04:21.511Z,-0.46
2022-11-19T06:05:21.490Z,-0.50
2022-11-19T06:06:21.470Z,-0.47
2022-11-19T06:07:21.505Z,-0.47
2022-11-19T06:08:21.444Z,-0.50
2022-11-19T06:09:21.821Z,-0.50
2022-11-19T06:10:21.457Z,-0.49
2022-11-19T06:11:21.443Z,-0.50
2022-11-19T06:12:21.411Z,-0.52
2022-11-19T06:13:21.410Z,-0.53
2022-11-19T06:14:21.398Z,-0.52
2022-11-19T06:15:21.398Z,-0.53
2022-11-19T06:16:21.358Z,-0.54
2022-11-19T06:17:21.358Z,-0.56
2022-11-19T06:18:21.358Z,-0.56
2022-11-19T06:19:21.691Z,-0.54
2022-11-19T06:20:21.318Z,-0.56
2022-11-19T06:21:21.335Z,-0.56
2022-11-19T06:22:21.312Z,-0.57
2022-11-19T06:23:21.306Z,-0.61
2022-11-19T06:24:21.308Z,-0.64
2022-11-19T06:25:21.282Z,-0.65
2022-11-19T06:26:21.277Z,-0.65
2022-11-19T06:27:21.294Z,-0.67
2022-11-19T06:28:21.250Z,-0.67
2022-11-19T06:29:21.748Z,-0.68
2022-11-19T06:30:21.339Z,-0.65
2022-11-19T06:31:21.330Z,-0.64
2022-11-19T06:32:21.360Z,-0.62
2022-11-19T06:33:21.399Z,-0.64
2022-11-19T06:34:21.434Z,-0.64
2022-11-19T06:35:21.454Z,-0.65
2022-11-19T06:36:21.184Z,-0.67
2022-11-19T06:37:21.178Z,-0.67
2022-11-19T06:38:21.212Z,-0.68
2022-11-19T06:39:21.558Z,-0.67
2022-11-19T06:40:21.108Z,-0.70
2022-11-19T06:41:21.103Z,-0.72
2022-11-19T06:42:21.089Z,-0.71
2022-11-19T06:43:21.070Z,-0.71
2022-11-19T06:44:21.097Z,-0.74
2022-11-19T06:45:21.067Z,-0.74
2022-11-19T06:46:21.043Z,-0.75
2022-11-19T06:47:21.031Z,-0.75
2022-11-19T06:48:21.036Z,-0.75
2022-11-19T06:49:21.328Z,-0.77
2022-11-19T06:50:21.007Z,-0.80
2022-11-19T06:51:21.007Z,-0.78
2022-11-19T06:52:20.975Z,-0.80
2022-11-19T06:53:20.956Z,-0.82
2022-11-19T06:54:20.955Z,-0.82
2022-11-19T06:55:21.139Z,-0.85
2022-11-19T06:56:20.936Z,-0.90
2022-11-19T06:57:20.927Z,-0.90
2022-11-19T06:58:20.959Z,-0.89
2022-11-19T06:59:21.536Z,-0.86
2022-11-19T07:00:20.908Z,-0.86
2022-11-19T07:01:20.939Z,-0.89
2022-11-19T07:02:21.715Z,-0.90
2022-11-19T07:03:20.848Z,-0.85
2022-11-19T07:04:20.857Z,-0.86
2022-11-19T07:05:20.840Z,-0.89
2022-11-19T07:06:20.841Z,-0.89
2022-11-19T07:07:20.876Z,-0.89
2022-11-19T07:08:20.822Z,-0.86
2022-11-19T07:09:21.128Z,-0.86
2022-11-19T07:10:20.835Z,-0.89
2022-11-19T07:11:20.764Z,-0.89
2022-11-19T07:12:20.756Z,-0.90
2022-11-19T07:13:20.776Z,-0.93
2022-11-19T07:14:20.747Z,-0.93
2022-11-19T07:15:20.735Z,-0.96
2022-11-19T07:16:20.746Z,-0.96
2022-11-19T07:17:20.735Z,-0.99
2022-11-19T07:18:20.698Z,-0.99
2022-11-19T07:19:21.037Z,-0.99
2022-11-19T07:20:20.771Z,-0.99
2022-11-19T07:21:20.705Z,-0.97
2022-11-19T07:22:20.692Z,-0.96
2022-11-19T07:23:20.744Z,-0.97
2022-11-19T07:24:20.688Z,-0.96
2022-11-19T07:25:20.724Z,-0.94
2022-11-19T07:26:20.717Z,-0.94
2022-11-19T07:27:20.727Z,-0.96
2022-11-19T07:28:20.672Z,-0.97
2022-11-19T07:29:21.038Z,-0.99
2022-11-19T07:30:20.789Z,-1.02
2022-11-19T07:31:20.635Z,-1.01
2022-11-19T07:32:20.780Z,-1.01
2022-11-19T07:33:20.639Z,-0.99
2022-11-19T07:34:20.608Z,-1.01
2022-11-19T07:35:20.498Z,-1.02
2022-11-19T07:36:20.507Z,-1.01
2022-11-19T07:37:20.799Z,-0.97
2022-11-19T07:38:20.639Z,-0.99
2022-11-19T07:39:20.615Z,-0.99
2022-11-19T07:40:20.463Z,-0.97
2022-11-19T07:41:20.422Z,-0.97
2022-11-19T07:42:20.478Z,-0.94
2022-11-19T07:43:20.433Z,-0.94
2022-11-19T07:44:20.414Z,-0.93
2022-11-19T07:45:20.398Z,-0.93
2022-11-19T07:46:20.394Z,-0.91
2022-11-19T07:47:20.370Z,-0.90
2022-11-19T07:48:20.390Z,-0.93
2022-11-19T07:49:20.732Z,-0.94
2022-11-19T07:50:20.358Z,-0.96
2022-11-19T07:51:20.383Z,-0.97
2022-11-19T07:52:20.328Z,-1.01
2022-11-19T07:53:20.326Z,-0.97
2022-11-19T07:54:20.318Z,-0.96
2022-11-19T07:55:20.325Z,-0.96
2022-11-19T07:56:20.285Z,-0.97
2022-11-19T07:57:20.275Z,-0.91
2022-11-19T07:58:20.282Z,-0.93
2022-11-19T07:59:20.529Z,-0.93
2022-11-19T08:00:20.252Z,-0.90
2022-11-19T08:01:20.309Z,-0.90
2022-11-19T08:02:20.243Z,-0.90
2022-11-19T08:03:20.191Z,-0.86
2022-11-19T08:04:20.571Z,-0.91
2022-11-19T08:05:20.412Z,-0.89
2022-11-19T08:06:20.182Z,-0.86
2022-11-19T08:07:20.214Z,-0.86
2022-11-19T08:08:20.151Z,-0.82
2022-11-19T08:09:20.451Z,-0.83
2022-11-19T08:10:20.160Z,-0.82
2022-11-19T08:11:20.130Z,-0.78
2022-11-19T08:12:20.104Z,-0.77
2022-11-19T08:13:20.095Z,-0.74
2022-11-19T08:14:20.087Z,-0.74
2022-11-19T08:15:20.071Z,-0.72
2022-11-19T08:16:20.087Z,-0.75
2022-11-19T08:17:20.044Z,-0.80
2022-11-19T08:18:20.039Z,-0.78
2022-11-19T08:19:20.376Z,-0.77
2022-11-19T08:20:20.031Z,-0.80
2022-11-19T08:21:20.018Z,-0.80
2022-11-19T08:22:20.018Z,-0.82
2022-11-19T08:23:19.983Z,-0.78
2022-11-19T08:24:20.503Z,-0.77
2022-11-19T08:25:19.948Z,-0.75
2022-11-19T08:26:19.967Z,-0.77
2022-11-19T08:27:19.947Z,-0.78
2022-11-19T08:28:19.935Z,-0.75
2022-11-19T08:29:20.252Z,-0.72
2022-11-19T08:30:19.933Z,-0.71
2022-11-19T08:31:19.907Z,-0.68
2022-11-19T08:32:19.912Z,-0.64
2022-11-19T08:33:19.868Z,-0.62
2022-11-19T08:34:20.071Z,-0.61
2022-11-19T08:35:19.847Z,-0.61
2022-11-19T08:36:19.852Z,-0.59
2022-11-19T08:37:19.828Z,-0.64
2022-11-19T08:38:19.851Z,-0.65
2022-11-19T08:39:19.811Z,-0.59
2022-11-19T08:40:19.811Z,-0.59
2022-11-19T08:41:19.784Z,-0.59
2022-11-19T08:42:19.775Z,-0.57
2022-11-19T08:43:19.759Z,-0.54
2022-11-19T08:44:20.022Z,-0.53
2022-11-19T08:45:21.039Z,-0.53
2022-11-19T08:46:19.731Z,-0.52
2022-11-19T08:47:19.735Z,-0.52
2022-11-19T08:48:19.707Z,-0.53
2022-11-19T08:49:19.771Z,-0.50
2022-11-19T08:50:19.759Z,-0.50
2022-11-19T08:51:19.659Z,-0.47
2022-11-19T08:52:19.668Z,-0.47
2022-11-19T08:53:19.662Z,-0.44
2022-11-19T08:54:19.899Z,-0.43
2022-11-19T08:55:19.615Z,-0.41
2022-11-19T08:56:19.725Z,-0.41
2022-11-19T08:57:19.608Z,-0.38
2022-11-19T08:58:19.610Z,-0.36
2022-11-19T08:59:19.860Z,-0.35
2022-11-19T09:00:19.583Z,-0.32
2022-11-19T09:01:19.618Z,-0.31
2022-11-19T09:02:26.648Z,-0.32
2022-11-19T09:03:19.536Z,-0.26
2022-11-19T09:04:25.046Z,-0.28
2022-11-19T09:05:19.495Z,-0.25
2022-11-19T09:06:19.527Z,-0.21
2022-11-19T09:07:19.521Z,-0.17
2022-11-19T09:08:19.487Z,-0.15
2022-11-19T09:09:19.468Z,-0.11
2022-11-19T09:10:19.471Z,-0.06
2022-11-19T09:11:19.476Z,-0.02
2022-11-19T09:12:19.435Z,0.00
2022-11-19T09:13:19.416Z,0.04
2022-11-19T09:14:19.745Z,0.01
2022-11-19T09:15:19.414Z,0.04
2022-11-19T09:16:19.403Z,0.04
2022-11-19T09:17:19.400Z,0.11
2022-11-19T09:18:19.363Z,0.12
2022-11-19T09:19:19.366Z,0.15
2022-11-19T09:20:19.375Z,0.08
2022-11-19T09:21:19.359Z,0.11
2022-11-19T09:22:19.363Z,0.12
2022-11-19T09:23:19.317Z,0.16
2022-11-19T09:24:19.692Z,0.15
2022-11-19T09:25:19.295Z,0.15
2022-11-19T09:26:19.324Z,0.18
2022-11-19T09:27:19.295Z,0.18
2022-11-19T09:28:19.279Z,0.15
2022-11-19T09:29:19.277Z,0.15
2022-11-19T09:30:19.246Z,0.15
2022-11-19T09:31:19.233Z,0.15
2022-11-19T09:32:24.047Z,0.16
2022-11-19T09:33:20.241Z,0.16
2022-11-19T09:34:19.395Z,0.18
2022-11-19T09:35:19.196Z,0.21
2022-11-19T09:36:19.213Z,0.25
2022-11-19T09:37:19.197Z,0.32
2022-11-19T09:38:19.212Z,0.41
2022-11-19T09:39:19.153Z,0.47
2022-11-19T09:40:19.149Z,0.56
2022-11-19T09:41:19.113Z,0.66
2022-11-19T09:42:19.134Z,0.69
2022-11-19T09:43:19.125Z,0.81
2022-11-19T09:44:19.488Z,0.81
2022-11-19T09:45:19.080Z,0.84
2022-11-19T09:46:19.073Z,0.92
2022-11-19T09:47:19.041Z,0.96
2022-11-19T09:48:19.094Z,0.96
2022-11-19T09:49:19.033Z,1.02
2022-11-19T09:50:19.033Z,1.13
2022-11-19T09:51:19.001Z,1.17
2022-11-19T09:52:19.000Z,1.26
2022-11-19T09:53:18.993Z,1.30
2022-11-19T09:54:19.471Z,1.35
2022-11-19T09:55:18.986Z,1.34
2022-11-19T09:56:18.965Z,1.35
2022-11-19T09:57:18.948Z,1.40
2022-11-19T09:58:18.984Z,1.32
2022-11-19T09:59:18.933Z,1.30
2022-11-19T10:00:18.932Z,1.32
2022-11-19T10:01:18.917Z,1.28
2022-11-19T10:02:18.900Z,1.24
2022-11-19T10:03:18.968Z,1.23
2022-11-19T10:04:19.218Z,1.22
2022-11-19T10:05:18.869Z,1.20
2022-11-19T10:06:18.881Z,1.20
2022-11-19T10:07:18.900Z,1.19
2022-11-19T10:08:18.882Z,1.20
2022-11-19T10:09:18.809Z,1.22
2022-11-19T10:10:18.811Z,1.22
2022-11-19T10:11:18.819Z,1.20
2022-11-19T10:12:18.789Z,1.22
2022-11-19T10:13:18.831Z,1.20
2022-11-19T10:14:19.125Z,1.20
2022-11-19T10:15:18.765Z,1.22
2022-11-19T10:16:18.750Z,1.20
2022-11-19T10:17:18.749Z,1.19
2022-11-19T10:18:18.729Z,1.20
2022-11-19T10:19:18.754Z,1.22
2022-11-19T10:20:18.731Z,1.23
2022-11-19T10:21:18.669Z,1.24
2022-11-19T10:22:18.678Z,1.26
2022-11-19T10:23:18.649Z,1.26
2022-11-19T10:24:19.113Z,1.26
2022-11-19T10:25:18.646Z,1.28
2022-11-19T10:26:18.617Z,1.30
2022-11-19T10:27:18.621Z,1.30
2022-11-19T10:28:18.618Z,1.30
2022-11-19T10:29:18.961Z,1.26
2022-11-19T10:30:18.701Z,1.28
2022-11-19T10:31:18.571Z,1.28
2022-11-19T10:32:18.589Z,1.28
2022-11-19T10:33:19.409Z,1.30
2022-11-19T10:34:18.541Z,1.31
2022-11-19T10:35:18.537Z,1.30
2022-11-19T10:36:18.534Z,1.31
2022-11-19T10:37:18.511Z,1.31
2022-11-19T10:38:18.493Z,1.32
2022-11-19T10:39:18.783Z,1.35
2022-11-19T10:40:18.595Z,1.37
2022-11-19T10:41:18.466Z,1.41
2022-11-19T10:42:18.448Z,1.45
2022-11-19T10:43:23.208Z,1.50
2022-11-19T10:44:19.642Z,1.52
2022-11-19T10:45:18.438Z,1.52
2022-11-19T10:46:18.426Z,1.53
2022-11-19T10:47:18.463Z,1.56
2022-11-19T10:48:18.402Z,1.58
2022-11-19T10:49:18.641Z,1.62
2022-11-19T10:50:18.388Z,1.66
2022-11-19T10:51:18.360Z,1.66
2022-11-19T10:52:18.347Z,1.68
2022-11-19T10:53:18.358Z,1.70
2022-11-19T10:54:18.318Z,1.73
2022-11-19T10:55:18.317Z,1.77
2022-11-19T10:56:18.286Z,1.84
2022-11-19T10:57:18.280Z,1.84
2022-11-19T10:58:18.312Z,1.81
2022-11-19T10:59:18.689Z,1.78
2022-11-19T11:00:18.246Z,1.80
2022-11-19T11:01:18.364Z,1.85
2022-11-19T11:02:18.219Z,1.87
2022-11-19T11:03:18.215Z,1.91
2022-11-19T11:04:18.232Z,1.92
2022-11-19T11:05:18.200Z,1.95
2022-11-19T11:06:18.179Z,1.97
2022-11-19T11:07:18.224Z,1.95
2022-11-19T11:08:18.172Z,1.99
2022-11-19T11:09:18.406Z,2.04
2022-11-19T11:10:18.167Z,2.08
2022-11-19T11:11:18.170Z,2.10
2022-11-19T11:12:18.119Z,2.10
2022-11-19T11:13:18.119Z,2.08
2022-11-19T11:14:18.094Z,2.06
2022-11-19T11:15:18.089Z,2.06
2022-11-19T11:16:18.089Z,2.08
2022-11-19T11:17:18.090Z,2.06
2022-11-19T11:18:18.055Z,2.07
2022-11-19T11:19:18.312Z,2.04
2022-11-19T11:20:18.026Z,2.07
2022-11-19T11:21:18.120Z,2.08
2022-11-19T11:22:18.007Z,2.11
2022-11-19T11:23:18.024Z,2.10
2022-11-19T11:24:18.007Z,2.10
2022-11-19T11:25:17.975Z,2.13
2022-11-19T11:26:17.988Z,2.14
2022-11-19T11:27:17.959Z,2.18
2022-11-19T11:28:17.935Z,2.25
2022-11-19T11:29:18.088Z,2.28
2022-11-19T11:30:18.023Z,2.31
2022-11-19T11:31:17.934Z,2.29
2022-11-19T11:32:17.895Z,2.31
2022-11-19T11:33:17.896Z,2.36
2022-11-19T11:34:17.876Z,2.39
2022-11-19T11:35:17.931Z,2.39
2022-11-19T11:36:17.853Z,2.43
2022-11-19T11:37:17.871Z,2.49
2022-11-19T11:38:17.835Z,2.49
2022-11-19T11:39:18.382Z,2.49
2022-11-19T11:40:17.812Z,2.44
2022-11-19T11:42:18.811Z,2.43
2022-11-19T11:43:17.796Z,2.44
2022-11-19T11:44:17.772Z,2.51
2022-11-19T11:45:17.829Z,2.54
2022-11-19T11:46:17.790Z,2.56
2022-11-19T11:47:17.736Z,2.56
2022-11-19T11:48:17.733Z,2.61
2022-11-19T11:49:17.745Z,2.62
2022-11-19T11:50:17.684Z,2.64
2022-11-19T11:51:17.692Z,2.65
2022-11-19T11:52:17.686Z,2.61
2022-11-19T11:53:17.682Z,2.57
2022-11-19T11:54:18.460Z,2.57
2022-11-19T11:55:17.665Z,2.57
2022-11-19T11:56:17.645Z,2.60
2022-11-19T11:57:17.805Z,2.65
2022-11-19T11:58:17.624Z,2.69
2022-11-19T11:59:17.999Z,2.71
2022-11-19T12:00:17.586Z,2.74
2022-11-19T12:01:17.617Z,2.77
2022-11-19T12:02:17.613Z,2.77
2022-11-19T12:03:17.600Z,2.82
2022-11-19T12:04:17.544Z,2.80
2022-11-19T12:05:17.621Z,2.80
2022-11-19T12:06:17.539Z,2.82
2022-11-19T12:07:17.675Z,2.83
2022-11-19T12:08:17.501Z,2.85
2022-11-19T12:09:17.684Z,2.86
2022-11-19T12:10:17.481Z,2.87
2022-11-19T12:11:17.473Z,2.89
2022-11-19T12:12:17.446Z,2.92
2022-11-19T12:13:17.493Z,2.95
2022-11-19T12:14:17.440Z,2.95
2022-11-19T12:15:17.530Z,2.97
2022-11-19T12:16:17.421Z,3.03
2022-11-19T12:17:17.406Z,3.05
2022-11-19T12:18:17.445Z,3.10
2022-11-19T12:19:17.888Z,3.18
2022-11-19T12:20:17.361Z,3.16
2022-11-19T12:21:17.373Z,3.13
2022-11-19T12:22:17.362Z,3.16
2022-11-19T12:23:17.341Z,3.11
2022-11-19T12:24:17.333Z,3.08
2022-11-19T12:25:17.376Z,3.07
2022-11-19T12:26:17.302Z,3.10
2022-11-19T12:27:17.293Z,3.05
2022-11-19T12:28:17.273Z,2.98
2022-11-19T12:29:17.702Z,2.90
2022-11-19T12:30:17.285Z,2.89
2022-11-19T12:31:17.265Z,2.89
2022-11-19T12:32:17.265Z,2.89
2022-11-19T12:33:17.242Z,2.92
2022-11-19T12:34:17.213Z,2.92
2022-11-19T12:35:17.212Z,2.95
2022-11-19T12:36:17.209Z,2.97
2022-11-19T12:37:17.214Z,3.03
2022-11-19T12:38:17.153Z,3.05
2022-11-19T12:39:17.565Z,3.04
2022-11-19T12:40:17.141Z,3.03
2022-11-19T12:41:17.163Z,3.01
2022-11-19T12:42:17.122Z,3.01
2022-11-19T12:43:17.121Z,3.00
2022-11-19T12:44:17.088Z,3.00
2022-11-19T12:45:17.153Z,3.03
2022-11-19T12:46:17.110Z,3.05
2022-11-19T12:47:17.099Z,3.05
2022-11-19T12:48:17.052Z,3.10
2022-11-19T12:49:17.412Z,3.13
2022-11-19T12:50:17.043Z,3.16
2022-11-19T12:51:17.042Z,3.16
2022-11-19T12:52:17.022Z,3.14
2022-11-19T12:53:17.031Z,3.18
2022-11-19T12:54:19.543Z,3.16
2022-11-19T12:55:18.010Z,3.16
2022-11-19T12:56:16.973Z,3.18
2022-11-19T12:57:16.962Z,3.14
2022-11-19T12:58:16.935Z,3.13
2022-11-19T12:59:16.985Z,3.13
2022-11-19T13:00:16.931Z,3.13
2022-11-19T13:01:16.955Z,3.13
2022-11-19T13:02:16.931Z,3.14
2022-11-19T13:03:16.902Z,3.11
2022-11-19T13:04:16.883Z,3.11
2022-11-19T13:05:16.905Z,3.10
2022-11-19T13:06:18.142Z,3.10
2022-11-19T13:07:16.906Z,3.08
2022-11-19T13:08:16.853Z,3.08
2022-11-19T13:09:17.037Z,3.04
2022-11-19T13:10:16.809Z,3.04
2022-11-19T13:11:16.850Z,2.98
2022-11-19T13:12:16.788Z,2.97